Time;durP1;ratioP1;P1;durP2;ratioP2;P2;SDS_P1;SDS_P2;PMS_P1;PMS_P2;Temp;Humidity;BMP_temperature;BMP_pressure;BME280_temperature;BME280_humidity;BME280_pressure;Samples;Min_cycle;Max_cycle;Signal;HPM_P1;HPM_P2
2022/11/14 00:01:58;;;;;;;71.07;39.58;;;7.00;99.90;;;;;;5060109;28;20022;-47
2022/11/14 00:04:24;;;;;;;79.68;38.40;;;7.00;99.90;;;;;;5024542;28;20029;-51
2022/11/14 00:06:50;;;;;;;72.05;39.65;;;7.10;99.90;;;;;;5022238;28;20045;-49
2022/11/14 00:09:15;;;;;;;84.05;41.17;;;7.10;99.90;;;;;;4993704;28;20113;-48
2022/11/14 00:11:41;;;;;;;72.10;38.13;;;7.00;99.90;;;;;;4995929;28;20067;-47
2022/11/14 00:14:08;;;;;;;76.47;39.65;;;7.00;99.90;;;;;;4995759;28;20604;-47
2022/11/14 00:16:33;;;;;;;85.03;40.53;;;7.00;99.90;;;;;;4994872;28;20108;-47
2022/11/14 00:18:59;;;;;;;74.55;37.45;;;7.00;99.90;;;;;;4996433;28;20113;-51
2022/11/14 00:21:25;;;;;;;80.40;38.38;;;7.00;99.90;;;;;;4996303;28;20041;-51
2022/11/14 00:23:51;;;;;;;77.03;38.78;;;7.00;99.90;;;;;;4999441;28;20027;-49
2022/11/14 00:26:16;;;;;;;79.45;40.35;;;7.00;99.90;;;;;;4999987;28;20022;-51
2022/11/14 00:28:42;;;;;;;85.40;40.17;;;6.90;99.90;;;;;;4999803;28;20333;-47
2022/11/14 00:31:09;;;;;;;73.22;38.60;;;6.90;99.90;;;;;;5001154;28;20022;-48
2022/11/14 00:33:34;;;;;;;82.35;39.35;;;6.90;99.90;;;;;;5000123;28;20041;-51
2022/11/14 00:36:00;;;;;;;79.97;40.47;;;6.90;99.90;;;;;;5018009;28;20025;-50
2022/11/14 00:38:26;;;;;;;79.05;40.25;;;7.00;99.90;;;;;;5028119;28;20033;-49
2022/11/14 00:40:51;;;;;;;79.57;41.30;;;7.00;99.90;;;;;;5017281;28;20057;-48
2022/11/14 00:43:17;;;;;;;80.18;39.40;;;7.00;99.90;;;;;;5108775;28;20547;-47
2022/11/14 00:45:46;;;;;;;80.53;39.80;;;7.00;99.90;;;;;;5049565;28;20040;-48
2022/11/14 00:48:12;;;;;;;82.60;40.22;;;7.00;99.90;;;;;;5063493;28;20117;-48
2022/11/14 00:50:38;;;;;;;81.47;38.50;;;7.00;99.90;;;;;;5027814;28;20030;-51
2022/11/14 00:53:04;;;;;;;82.15;39.38;;;7.10;99.90;;;;;;5027359;28;20025;-49
2022/11/14 00:55:30;;;;;;;78.32;40.10;;;7.10;99.90;;;;;;5027476;28;20022;-50
2022/11/14 00:57:56;;;;;;;81.30;39.70;;;7.00;99.90;;;;;;5024869;28;20093;-48
2022/11/14 01:00:22;;;;;;;90.45;42.22;;;7.00;99.90;;;;;;5007796;28;20033;-47
2022/11/14 01:02:47;;;;;;;86.13;40.38;;;6.90;99.90;;;;;;5008685;28;20061;-46
2022/11/14 01:05:13;;;;;;;82.68;39.38;;;7.00;99.90;;;;;;5009364;28;20442;-47
2022/11/14 01:07:38;;;;;;;82.60;40.35;;;6.90;99.90;;;;;;5009322;28;20029;-50
2022/11/14 01:10:05;;;;;;;81.05;41.20;;;7.00;99.90;;;;;;5007939;28;20109;-48
2022/11/14 01:12:36;;;;;;;80.20;38.75;;;7.00;99.90;;;;;;5008657;28;20030;-50
2022/11/14 01:15:02;;;;;;;84.57;39.55;;;7.00;99.90;;;;;;5001999;28;20121;-50
2022/11/14 01:17:28;;;;;;;82.35;42.83;;;6.90;99.90;;;;;;5063135;28;20146;-48
2022/11/14 01:19:54;;;;;;;78.50;39.38;;;6.90;99.90;;;;;;5027015;28;20045;-50
2022/11/14 01:22:20;;;;;;;90.55;41.75;;;6.90;99.90;;;;;;5027140;28;20267;-50
2022/11/14 01:24:46;;;;;;;81.90;38.72;;;6.90;99.90;;;;;;5027595;28;20032;-51
2022/11/14 01:27:11;;;;;;;93.90;42.95;;;7.00;99.90;;;;;;5027041;28;20026;-48
2022/11/14 01:29:37;;;;;;;83.47;40.35;;;6.90;99.90;;;;;;5028241;28;20053;-47
2022/11/14 01:32:02;;;;;;;82.43;40.17;;;6.90;99.90;;;;;;5026536;28;20032;-48
2022/11/14 01:34:28;;;;;;;83.35;39.90;;;6.90;99.90;;;;;;5043859;28;20079;-51
2022/11/14 01:36:54;;;;;;;90.43;41.85;;;6.90;99.90;;;;;;5042421;28;20026;-48
2022/11/14 01:39:20;;;;;;;81.32;40.15;;;7.00;99.90;;;;;;5026765;28;20029;-48
2022/11/14 01:41:46;;;;;;;89.97;42.05;;;6.90;99.90;;;;;;5027699;28;20497;-47
2022/11/14 01:44:36;;;;;;;87.78;43.78;;;6.90;99.90;;;;;;5027239;28;20017;-47
2022/11/14 01:47:03;;;;;;;87.07;43.38;;;6.80;99.90;;;;;;5028188;28;20033;-47
2022/11/14 01:49:40;;;;;;;93.43;43.58;;;6.80;99.90;;;;;;5028092;28;20032;-47
2022/11/14 01:52:12;;;;;;;88.38;41.42;;;6.90;99.90;;;;;;5061182;28;20023;-50
2022/11/14 01:54:41;;;;;;;93.65;43.42;;;6.90;99.90;;;;;;5028439;28;20142;-47
2022/11/14 01:57:09;;;;;;;95.23;42.90;;;6.80;99.90;;;;;;5028171;28;20033;-47
2022/11/14 01:59:41;;;;;;;89.85;41.80;;;6.80;99.90;;;;;;5027644;28;20401;-48
2022/11/14 02:02:20;;;;;;;93.15;42.53;;;6.80;99.90;;;;;;5027399;28;20022;-48
2022/11/14 02:04:55;;;;;;;90.22;43.67;;;6.90;99.90;;;;;;5020515;28;20032;-47
2022/11/14 02:07:24;;;;;;;87.93;41.40;;;6.80;99.90;;;;;;5062260;28;20009;-48
2022/11/14 02:09:51;;;;;;;94.22;44.92;;;6.80;99.90;;;;;;5028217;28;20033;-47
2022/11/14 02:12:18;;;;;;;93.85;43.92;;;6.90;99.90;;;;;;5027666;28;20431;-47
2022/11/14 02:14:46;;;;;;;93.43;43.88;;;6.80;99.90;;;;;;5027689;28;20025;-47
2022/11/14 02:17:12;;;;;;;94.30;43.88;;;6.70;99.90;;;;;;5027543;28;20451;-47
2022/11/14 02:19:50;;;;;;;97.80;42.53;;;6.70;99.90;;;;;;5027160;28;20676;-47
2022/11/14 02:22:16;;;;;;;87.75;40.95;;;6.70;99.90;;;;;;5027027;28;20055;-47
2022/11/14 02:24:42;;;;;;;98.60;47.97;;;6.70;99.90;;;;;;5027371;28;20498;-48
2022/11/14 02:27:10;;;;;;;91.40;42.25;;;6.60;99.90;;;;;;5027284;28;20033;-50
2022/11/14 02:29:36;;;;;;;95.28;44.08;;;6.60;99.90;;;;;;5027619;28;20025;-47
2022/11/14 02:32:02;;;;;;;101.82;45.50;;;6.60;99.90;;;;;;5027179;28;20026;-47
2022/11/14 02:34:29;;;;;;;93.35;43.42;;;6.60;99.90;;;;;;5006038;28;20419;-49
2022/11/14 02:36:55;;;;;;;89.22;43.30;;;6.70;99.90;;;;;;5095461;28;20024;-48
2022/11/14 02:39:21;;;;;;;89.13;42.53;;;6.70;99.90;;;;;;5044390;28;20025;-48
2022/11/14 02:41:49;;;;;;;88.50;41.88;;;6.60;99.90;;;;;;5059170;28;20779;-48
2022/11/14 02:44:15;;;;;;;87.47;42.88;;;6.70;99.90;;;;;;5027026;28;20482;-47
2022/11/14 02:46:41;;;;;;;89.47;42.80;;;6.70;99.90;;;;;;5026132;28;20026;-47
2022/11/14 02:49:06;;;;;;;93.97;43.80;;;6.70;99.90;;;;;;5013749;28;20018;-46
2022/11/14 02:51:32;;;;;;;88.90;42.97;;;6.70;99.90;;;;;;5061437;28;20027;-49
2022/11/14 02:53:57;;;;;;;99.30;43.95;;;6.70;99.90;;;;;;5025546;28;20394;-48
2022/11/14 02:56:23;;;;;;;95.53;43.55;;;6.70;99.90;;;;;;5026072;28;20034;-50
2022/11/14 02:58:49;;;;;;;94.80;44.20;;;6.60;99.90;;;;;;5027147;28;20112;-47
2022/11/14 03:01:15;;;;;;;93.97;45.30;;;6.70;99.90;;;;;;5009079;28;20026;-46
2022/11/14 03:03:40;;;;;;;96.85;45.45;;;6.70;99.90;;;;;;5025723;28;20059;-46
2022/11/14 03:06:06;;;;;;;92.78;45.47;;;6.60;99.90;;;;;;5027050;28;20194;-47
2022/11/14 03:08:32;;;;;;;93.72;44.60;;;6.60;99.90;;;;;;5026399;28;20070;-47
2022/11/14 03:11:04;;;;;;;97.60;45.58;;;6.60;99.90;;;;;;5026559;28;20422;-51
2022/11/14 03:13:29;;;;;;;96.57;43.70;;;6.60;99.90;;;;;;5025130;28;20063;-48
2022/11/14 03:15:55;;;;;;;101.85;47.65;;;6.70;99.90;;;;;;5026898;28;20394;-51
2022/11/14 03:18:21;;;;;;;100.82;44.83;;;6.60;99.90;;;;;;5025229;28;20061;-48
2022/11/14 03:20:47;;;;;;;89.10;41.75;;;6.60;99.90;;;;;;5049472;28;20023;-50
2022/11/14 03:23:16;;;;;;;97.38;44.25;;;6.60;99.90;;;;;;5029362;28;20025;-49
2022/11/14 03:25:42;;;;;;;96.70;42.55;;;6.60;99.90;;;;;;5026715;28;20017;-49
2022/11/14 03:28:07;;;;;;;96.53;43.65;;;6.60;99.90;;;;;;5025156;28;20089;-48
2022/11/14 03:30:33;;;;;;;95.85;43.05;;;6.50;99.90;;;;;;5026401;28;20056;-47
2022/11/14 03:32:58;;;;;;;96.18;42.25;;;6.50;99.90;;;;;;5025832;28;20512;-47
2022/11/14 03:35:24;;;;;;;103.05;46.22;;;6.50;99.90;;;;;;5026201;28;20028;-46
2022/11/14 03:37:50;;;;;;;96.97;45.47;;;6.50;99.90;;;;;;5044690;28;20467;-51
2022/11/14 03:40:15;;;;;;;94.43;44.80;;;6.40;99.90;;;;;;5034357;28;20328;-47
2022/11/14 03:42:41;;;;;;;97.25;43.63;;;6.50;99.90;;;;;;5048622;28;20026;-47
2022/11/14 03:45:09;;;;;;;102.47;45.97;;;6.40;99.90;;;;;;5024498;28;20045;-48
2022/11/14 03:47:34;;;;;;;96.60;44.88;;;6.50;99.90;;;;;;5040488;28;20073;-49
2022/11/14 03:50:00;;;;;;;92.68;42.22;;;6.50;99.90;;;;;;5038197;28;20041;-48
2022/11/14 03:52:25;;;;;;;104.82;46.95;;;6.50;99.90;;;;;;5025274;28;20025;-47
2022/11/14 03:54:51;;;;;;;99.97;45.80;;;6.50;99.90;;;;;;5010621;28;20072;-48
2022/11/14 03:57:17;;;;;;;98.60;46.28;;;6.50;99.90;;;;;;5059536;28;20018;-50
2022/11/14 03:59:43;;;;;;;101.07;44.95;;;6.50;99.90;;;;;;5026759;28;20025;-51
2022/11/14 04:02:08;;;;;;;94.65;44.50;;;6.50;99.90;;;;;;5025690;27;20032;-46
2022/11/14 04:04:34;;;;;;;95.10;44.22;;;6.40;99.90;;;;;;5016343;28;20031;-47
2022/11/14 04:07:00;;;;;;;90.63;44.30;;;6.50;99.90;;;;;;5054543;28;20008;-47
2022/11/14 04:09:26;;;;;;;90.35;43.47;;;6.50;99.90;;;;;;5025994;27;20025;-47
2022/11/14 04:11:51;;;;;;;98.82;45.42;;;6.40;99.90;;;;;;5024534;28;20021;-46
2022/11/14 04:14:17;;;;;;;98.53;47.17;;;6.40;99.90;;;;;;5024690;28;20022;-47
2022/11/14 04:16:42;;;;;;;97.95;43.97;;;6.40;99.90;;;;;;5026073;28;20100;-47
2022/11/14 04:19:08;;;;;;;97.82;43.97;;;6.40;99.90;;;;;;5026929;28;20400;-48
2022/11/14 04:21:34;;;;;;;94.32;43.75;;;6.40;99.90;;;;;;5051200;28;20057;-47
2022/11/14 04:24:00;;;;;;;96.60;43.42;;;6.50;99.90;;;;;;5025969;28;20022;-50
2022/11/14 04:26:26;;;;;;;93.72;44.15;;;6.50;99.90;;;;;;5019355;28;20026;-51
2022/11/14 04:28:51;;;;;;;93.10;42.95;;;6.40;99.90;;;;;;5003539;28;20056;-48
2022/11/14 04:31:17;;;;;;;88.53;43.65;;;6.40;99.90;;;;;;5005782;28;20037;-47
2022/11/14 04:33:42;;;;;;;92.20;44.58;;;6.40;99.90;;;;;;4999342;28;20076;-47
2022/11/14 04:36:08;;;;;;;96.32;42.50;;;6.40;99.90;;;;;;5056256;28;20680;-48
2022/11/14 04:38:34;;;;;;;102.22;45.30;;;6.30;99.90;;;;;;5010243;28;20026;-48
2022/11/14 04:40:59;;;;;;;98.65;43.97;;;6.40;99.90;;;;;;4997685;28;20022;-47
2022/11/14 04:43:25;;;;;;;95.95;45.00;;;6.30;99.90;;;;;;4992937;28;20025;-47
2022/11/14 04:45:51;;;;;;;93.20;44.97;;;6.20;99.90;;;;;;4999086;28;20014;-47
2022/11/14 04:48:16;;;;;;;96.70;43.97;;;6.20;99.90;;;;;;4995150;28;20113;-47
2022/11/14 04:50:44;;;;;;;98.70;45.78;;;6.20;99.90;;;;;;4993463;28;20022;-48
2022/11/14 04:53:10;;;;;;;96.53;43.42;;;6.30;99.90;;;;;;4993010;28;20018;-47
2022/11/14 04:55:35;;;;;;;103.88;45.35;;;6.30;99.90;;;;;;4993255;28;20093;-47
2022/11/14 04:58:01;;;;;;;92.25;44.45;;;6.20;99.90;;;;;;4993419;28;20387;-48
2022/11/14 05:00:27;;;;;;;92.28;42.55;;;6.20;99.90;;;;;;4996636;28;20022;-49
2022/11/14 05:02:53;;;;;;;86.47;40.45;;;6.20;99.90;;;;;;4991977;28;20031;-48
2022/11/14 05:05:18;;;;;;;84.18;40.85;;;6.20;99.90;;;;;;5004478;28;20029;-48
2022/11/14 05:07:44;;;;;;;83.57;42.08;;;6.20;99.90;;;;;;4989620;28;20345;-48
2022/11/14 05:10:09;;;;;;;90.97;43.10;;;6.20;99.90;;;;;;4989441;28;20022;-48
2022/11/14 05:12:35;;;;;;;92.32;43.40;;;6.10;99.90;;;;;;4988869;28;20419;-52
2022/11/14 05:15:01;;;;;;;102.30;46.40;;;6.10;99.90;;;;;;4990101;28;20117;-49
2022/11/14 05:17:27;;;;;;;94.00;42.58;;;6.10;99.90;;;;;;5038209;28;20027;-50
2022/11/14 05:19:53;;;;;;;99.18;45.00;;;6.20;99.90;;;;;;5112069;28;20050;-47
2022/11/14 05:22:18;;;;;;;86.60;43.30;;;6.00;99.90;;;;;;4994645;28;20032;-48
2022/11/14 05:24:44;;;;;;;87.85;39.58;;;6.00;99.90;;;;;;4988933;28;20061;-48
2022/11/14 05:27:09;;;;;;;90.80;42.05;;;6.00;99.90;;;;;;5001362;28;20479;-51
2022/11/14 05:29:35;;;;;;;102.10;42.78;;;6.00;99.90;;;;;;5063393;28;20087;-50
2022/11/14 05:32:01;;;;;;;84.80;39.13;;;6.00;99.90;;;;;;5011024;28;20029;-48
2022/11/14 05:34:26;;;;;;;88.13;40.92;;;5.90;99.90;;;;;;5006561;28;20034;-47
2022/11/14 05:36:52;;;;;;;84.00;40.17;;;6.00;99.90;;;;;;5005777;28;20479;-50
2022/11/14 05:39:18;;;;;;;90.65;39.78;;;6.00;99.90;;;;;;4998329;28;20133;-47
2022/11/14 05:41:43;;;;;;;86.40;39.28;;;6.00;99.90;;;;;;4987282;28;20359;-47
2022/11/14 05:44:08;;;;;;;93.25;42.88;;;6.10;99.90;;;;;;5038641;28;20091;-48
2022/11/14 05:46:34;;;;;;;95.47;42.72;;;6.00;99.90;;;;;;5008259;28;20044;-48
2022/11/14 05:49:00;;;;;;;95.30;43.25;;;6.00;99.90;;;;;;5002614;28;20094;-49
2022/11/14 05:51:25;;;;;;;89.78;40.58;;;5.90;99.90;;;;;;5027137;28;20019;-49
2022/11/14 05:53:51;;;;;;;91.75;41.67;;;6.00;99.90;;;;;;5111403;28;20019;-48
2022/11/14 05:56:16;;;;;;;95.72;42.00;;;6.00;99.90;;;;;;5030782;28;20063;-48
2022/11/14 05:58:42;;;;;;;104.78;43.50;;;6.00;99.90;;;;;;5050600;28;20038;-48
2022/11/14 06:01:10;;;;;;;84.10;39.10;;;6.00;99.90;;;;;;5028013;28;20026;-49
2022/11/14 06:03:39;;;;;;;93.28;40.45;;;6.00;99.90;;;;;;5023566;28;20433;-48
2022/11/14 06:06:06;;;;;;;88.30;40.67;;;6.00;99.90;;;;;;5045323;28;20022;-48
2022/11/14 06:08:32;;;;;;;95.90;41.72;;;6.10;99.90;;;;;;4999580;28;20030;-48
2022/11/14 06:11:07;;;;;;;93.13;41.47;;;6.10;99.90;;;;;;5007917;28;20114;-47
2022/11/14 06:13:32;;;;;;;84.63;39.67;;;6.00;99.90;;;;;;5006796;28;20493;-48
2022/11/14 06:16:04;;;;;;;102.60;46.17;;;6.10;99.90;;;;;;4993529;28;20068;-50
2022/11/14 06:18:32;;;;;;;92.80;41.17;;;6.10;99.90;;;;;;4997730;28;20046;-47
2022/11/14 06:21:00;;;;;;;103.97;45.05;;;6.10;99.90;;;;;;5017576;28;20039;-47
2022/11/14 06:23:25;;;;;;;97.43;44.17;;;6.10;99.90;;;;;;5058322;28;20535;-48
2022/11/14 06:25:51;;;;;;;92.22;43.58;;;6.20;99.90;;;;;;5009894;28;20057;-47
2022/11/14 06:28:16;;;;;;;90.10;40.45;;;6.20;99.90;;;;;;5025764;28;20092;-49
2022/11/14 06:30:42;;;;;;;91.13;42.42;;;6.20;99.90;;;;;;5014777;28;20029;-48
2022/11/14 06:33:07;;;;;;;93.25;41.40;;;6.20;99.90;;;;;;4989931;28;20037;-48
2022/11/14 06:35:34;;;;;;;92.22;42.25;;;6.20;99.90;;;;;;5042744;28;20022;-46
2022/11/14 06:37:59;;;;;;;99.57;44.20;;;6.30;99.90;;;;;;5061486;28;20067;-46
2022/11/14 06:40:25;;;;;;;96.63;43.20;;;6.20;99.90;;;;;;5010933;28;20033;-46
2022/11/14 06:42:53;;;;;;;90.72;41.88;;;6.30;99.90;;;;;;5006396;28;20172;-47
2022/11/14 06:45:19;;;;;;;97.30;42.88;;;6.30;99.90;;;;;;5006857;28;20511;-47
2022/11/14 06:47:44;;;;;;;101.88;44.90;;;6.30;99.90;;;;;;5007355;28;20026;-47
2022/11/14 06:50:10;;;;;;;100.93;45.05;;;6.30;99.90;;;;;;5007100;28;20672;-47
2022/11/14 06:52:35;;;;;;;97.43;43.95;;;6.30;99.90;;;;;;5007082;28;20022;-47
2022/11/14 06:55:00;;;;;;;87.35;42.05;;;6.30;99.90;;;;;;5007058;28;20103;-48
2022/11/14 06:57:26;;;;;;;92.22;41.92;;;6.30;99.90;;;;;;5006992;28;20056;-47
2022/11/14 06:59:51;;;;;;;90.63;42.70;;;6.30;99.90;;;;;;5007171;28;20023;-47
2022/11/14 07:02:17;;;;;;;100.10;43.42;;;6.30;99.90;;;;;;5007100;28;20421;-49
2022/11/14 07:04:42;;;;;;;91.00;41.38;;;6.40;99.90;;;;;;5006947;28;20264;-47
2022/11/14 07:07:08;;;;;;;93.43;44.35;;;6.40;99.90;;;;;;5007232;28;20086;-47
2022/11/14 07:09:33;;;;;;;95.28;43.63;;;6.50;99.90;;;;;;5006414;28;20018;-47
2022/11/14 07:11:59;;;;;;;90.70;41.97;;;6.60;99.90;;;;;;5004810;28;20113;-47
2022/11/14 07:14:25;;;;;;;86.75;40.83;;;6.50;99.90;;;;;;5003189;28;20034;-47
2022/11/14 07:16:50;;;;;;;86.72;40.95;;;6.60;99.90;;;;;;4995441;28;20025;-48
2022/11/14 07:19:16;;;;;;;99.05;44.03;;;6.60;99.90;;;;;;5006060;28;20033;-47
2022/11/14 07:21:50;;;;;;;99.80;44.33;;;6.50;99.90;;;;;;4996281;28;20026;-47
2022/11/14 07:27:07;;;;;;;97.18;43.33;;;6.50;99.90;;;;;;5005423;28;20033;-48
2022/11/14 07:29:33;;;;;;;92.82;43.92;;;6.40;99.90;;;;;;5005354;28;20045;-47
2022/11/14 07:31:59;;;;;;;92.38;44.58;;;6.40;99.90;;;;;;5004593;28;20018;-47
2022/11/14 07:34:25;;;;;;;92.70;44.00;;;6.40;99.90;;;;;;4999821;28;20210;-48
2022/11/14 07:36:50;;;;;;;91.97;44.35;;;6.50;99.90;;;;;;5000913;28;20026;-47
2022/11/14 07:39:16;;;;;;;99.60;45.22;;;6.50;99.90;;;;;;5005169;28;20601;-47
2022/11/14 07:41:41;;;;;;;91.55;43.28;;;6.60;99.90;;;;;;5048480;28;20026;-49
2022/11/14 07:44:07;;;;;;;85.72;41.83;;;6.60;99.90;;;;;;5099534;28;20039;-47
2022/11/14 07:46:33;;;;;;;79.90;40.83;;;6.60;99.90;;;;;;5108037;28;20062;-48
2022/11/14 07:48:59;;;;;;;75.63;41.10;;;6.60;99.90;;;;;;5107999;28;20058;-47
2022/11/14 07:51:25;;;;;;;81.82;40.05;;;6.70;99.90;;;;;;5107686;28;20061;-47
2022/11/14 07:53:52;;;;;;;82.80;41.60;;;6.60;99.90;;;;;;5063895;28;20097;-47
2022/11/14 07:56:21;;;;;;;79.80;40.47;;;6.60;99.90;;;;;;5106924;28;20031;-50
2022/11/14 07:58:46;;;;;;;93.47;45.25;;;6.60;99.90;;;;;;5107938;28;20089;-47
2022/11/14 08:01:13;;;;;;;95.50;45.13;;;6.60;99.90;;;;;;5109673;28;20051;-48
2022/11/14 08:03:42;;;;;;;94.55;45.80;;;6.70;99.90;;;;;;5074669;28;20047;-47
2022/11/14 08:06:12;;;;;;;89.63;43.42;;;6.70;99.90;;;;;;5061471;28;20026;-47
2022/11/14 08:08:37;;;;;;;88.10;44.85;;;6.70;99.90;;;;;;5078036;28;20035;-47
2022/11/14 08:11:04;;;;;;;84.95;42.83;;;6.80;99.90;;;;;;5108996;28;20024;-48
2022/11/14 08:13:30;;;;;;;86.70;43.22;;;6.80;99.90;;;;;;5108619;28;20102;-50
2022/11/14 08:15:55;;;;;;;83.82;42.92;;;6.80;99.90;;;;;;5108035;28;20038;-47
2022/11/14 08:18:21;;;;;;;91.22;45.38;;;6.80;99.90;;;;;;5007835;28;20026;-47
2022/11/14 08:20:47;;;;;;;87.60;43.92;;;6.70;99.90;;;;;;4999413;28;20025;-47
2022/11/14 08:23:13;;;;;;;88.38;43.83;;;6.80;99.90;;;;;;4990300;28;20026;-47
2022/11/14 08:25:40;;;;;;;85.07;44.47;;;6.80;99.90;;;;;;4986367;28;20419;-48
2022/11/14 08:28:05;;;;;;;92.15;46.40;;;6.90;99.90;;;;;;4986324;28;20035;-48
2022/11/14 08:30:31;;;;;;;77.72;41.05;;;6.90;99.90;;;;;;5003182;28;20029;-48
2022/11/14 08:32:59;;;;;;;83.85;44.10;;;6.90;99.90;;;;;;5005035;28;20099;-49
2022/11/14 08:35:25;;;;;;;83.28;40.75;;;6.90;99.90;;;;;;5005633;28;20124;-47
2022/11/14 08:37:50;;;;;;;77.85;40.00;;;7.00;99.90;;;;;;5005405;28;20109;-47
2022/11/14 08:40:16;;;;;;;78.00;42.00;;;7.00;99.90;;;;;;5007912;28;20086;-47
2022/11/14 08:42:41;;;;;;;80.25;42.53;;;7.10;99.90;;;;;;5008442;28;20041;-45
2022/11/14 08:45:07;;;;;;;82.55;40.88;;;7.10;99.90;;;;;;5008660;28;20103;-45
2022/11/14 08:47:33;;;;;;;78.78;40.55;;;7.20;99.90;;;;;;5008109;28;20030;-45
2022/11/14 08:49:58;;;;;;;78.35;39.67;;;7.20;99.90;;;;;;5008260;28;20037;-47
2022/11/14 08:52:23;;;;;;;80.55;40.53;;;7.30;99.90;;;;;;5008468;28;20068;-46
2022/11/14 08:54:49;;;;;;;82.00;42.38;;;7.30;99.90;;;;;;5008951;28;20026;-46
2022/11/14 08:57:14;;;;;;;75.72;40.55;;;7.40;99.90;;;;;;5008867;28;20369;-46
2022/11/14 08:59:41;;;;;;;69.85;37.60;;;7.40;99.90;;;;;;5008691;28;20078;-47
2022/11/14 09:02:10;;;;;;;73.93;39.22;;;7.50;99.90;;;;;;5008074;28;20022;-46
2022/11/14 09:04:35;;;;;;;77.90;41.63;;;7.50;99.90;;;;;;5008604;28;20049;-47
2022/11/14 09:07:01;;;;;;;77.53;39.92;;;7.50;99.90;;;;;;5008644;28;20068;-46
2022/11/14 09:09:26;;;;;;;74.82;38.78;;;7.60;99.90;;;;;;5008434;28;20235;-47
2022/11/14 09:11:52;;;;;;;67.30;36.63;;;7.70;99.90;;;;;;5007728;28;20026;-47
2022/11/14 09:14:17;;;;;;;67.72;37.55;;;7.80;99.90;;;;;;5008264;28;20068;-46
2022/11/14 09:16:43;;;;;;;74.68;38.38;;;7.80;99.90;;;;;;4999624;28;20026;-47
2022/11/14 09:19:08;;;;;;;69.70;38.08;;;8.00;99.90;;;;;;4991507;28;20050;-46
2022/11/14 09:21:34;;;;;;;67.28;37.38;;;8.00;99.90;;;;;;4988594;28;20026;-47
2022/11/14 09:23:59;;;;;;;67.20;36.85;;;8.10;99.90;;;;;;5002811;28;20030;-47
2022/11/14 09:26:25;;;;;;;61.95;33.65;;;8.20;99.90;;;;;;5008582;28;20230;-46
2022/11/14 09:28:50;;;;;;;61.67;35.05;;;8.40;99.90;;;;;;5006189;28;20033;-47
2022/11/14 09:31:16;;;;;;;63.58;33.08;;;8.40;99.90;;;;;;5006750;28;20018;-46
2022/11/14 09:33:41;;;;;;;57.10;32.08;;;8.50;99.90;;;;;;5007038;28;20025;-47
2022/11/14 09:36:09;;;;;;;56.25;31.90;;;8.40;99.90;;;;;;5007857;28;20051;-46
2022/11/14 09:38:35;;;;;;;50.35;30.02;;;8.40;99.90;;;;;;5008129;28;20479;-48
2022/11/14 09:41:23;;;;;;;55.38;30.30;;;8.50;99.90;;;;;;5008539;28;20030;-47
2022/11/14 09:44:13;;;;;;;53.25;30.40;;;8.50;99.90;;;;;;5008132;28;20037;-47
2022/11/14 09:46:55;;;;;;;54.30;30.07;;;8.60;99.90;;;;;;5008185;28;20030;-46
2022/11/14 09:49:42;;;;;;;54.67;30.58;;;8.70;99.90;;;;;;5008220;28;20496;-46
2022/11/14 09:52:34;;;;;;;53.22;29.05;;;8.70;99.90;;;;;;5007824;28;20482;-46
2022/11/14 09:55:11;;;;;;;53.13;29.67;;;8.70;99.90;;;;;;5008137;28;20379;-47
2022/11/14 09:57:37;;;;;;;52.55;32.08;;;8.80;99.90;;;;;;5008239;28;20048;-48
2022/11/14 10:00:40;;;;;;;58.22;32.33;;;8.80;99.90;;;;;;5007215;28;20061;-47
2022/11/14 10:03:19;;;;;;;52.05;30.75;;;8.80;99.90;;;;;;5107005;28;20031;-47
2022/11/14 10:06:01;;;;;;;53.28;30.35;;;8.80;99.90;;;;;;5091995;28;20017;-47
2022/11/14 10:08:38;;;;;;;56.90;34.08;;;8.80;99.90;;;;;;5026217;28;20494;-47
2022/11/14 10:11:22;;;;;;;56.38;32.88;;;8.90;99.90;;;;;;5014056;28;20413;-47
2022/11/14 10:14:27;;;;;;;54.55;30.65;;;8.80;99.90;;;;;;5007797;28;20017;-47
2022/11/14 10:17:25;;;;;;;50.97;30.63;;;9.10;99.90;;;;;;5007884;28;20025;-47
2022/11/14 10:20:09;;;;;;;45.92;28.20;;;10.40;99.90;;;;;;5010108;28;20410;-47
2022/11/14 10:23:06;;;;;;;43.45;27.60;;;12.20;99.90;;;;;;5006987;28;20057;-47
2022/11/14 10:25:55;;;;;;;41.20;25.58;;;13.90;99.90;;;;;;5007946;28;20022;-47
2022/11/14 10:28:40;;;;;;;38.22;23.83;;;15.70;99.90;;;;;;5006123;28;20020;-47
2022/11/14 10:31:45;;;;;;;32.97;22.65;;;16.40;98.10;;;;;;5006380;28;20163;-48
2022/11/14 10:34:21;;;;;;;36.25;24.02;;;17.50;94.70;;;;;;5007590;28;20375;-50
2022/11/14 10:37:16;;;;;;;32.53;21.90;;;18.60;93.30;;;;;;5007760;28;20052;-47
2022/11/14 10:39:54;;;;;;;32.03;22.75;;;19.50;90.50;;;;;;5005334;28;20148;-47
2022/11/14 10:42:34;;;;;;;33.42;24.17;;;19.30;87.90;;;;;;5006890;28;20030;-48
2022/11/14 10:45:13;;;;;;;35.10;25.20;;;18.50;88.80;;;;;;5007060;28;20038;-48
2022/11/14 10:47:43;;;;;;;34.47;24.52;;;18.30;89.00;;;;;;5007443;28;20038;-48
2022/11/14 10:50:19;;;;;;;34.97;24.53;;;18.60;89.10;;;;;;5007155;28;20030;-47
2022/11/14 10:52:46;;;;;;;30.98;22.65;;;19.30;87.30;;;;;;5005297;28;20253;-47
2022/11/14 10:55:18;;;;;;;30.48;23.33;;;19.30;87.40;;;;;;5005769;28;20022;-48
2022/11/14 10:57:46;;;;;;;28.23;22.08;;;20.50;82.60;;;;;;5007414;28;20051;-47
2022/11/14 11:00:18;;;;;;;30.85;22.55;;;20.60;81.00;;;;;;5007233;28;20341;-50
2022/11/14 11:02:48;;;;;;;30.40;22.60;;;20.90;79.90;;;;;;5002005;28;20055;-49
2022/11/14 11:05:15;;;;;;;;;;;21.00;78.30;;;;;;4983509;28;20041;-47
2022/11/14 11:13:33;;;;;;;26.27;20.42;;;21.60;76.00;;;;;;5006697;28;20028;-45
2022/11/14 11:16:01;;;;;;;24.73;21.10;;;21.70;75.30;;;;;;5006698;28;20030;-48
2022/11/14 11:18:34;;;;;;;26.27;19.90;;;22.20;74.40;;;;;;4992133;28;20475;-49
2022/11/14 11:21:09;;;;;;;25.77;20.13;;;21.90;73.90;;;;;;4999688;28;20057;-47
2022/11/14 11:23:36;;;;;;;25.63;20.15;;;22.00;72.30;;;;;;5006191;28;20026;-46
2022/11/14 11:26:15;;;;;;;27.63;22.00;;;21.90;72.30;;;;;;5000622;28;20030;-45
2022/11/14 11:28:40;;;;;;;26.80;21.17;;;21.70;70.10;;;;;;4993538;28;20029;-45
2022/11/14 11:31:10;;;;;;;26.02;20.60;;;21.20;70.90;;;;;;5006921;28;20030;-45
2022/11/14 11:33:37;;;;;;;26.10;19.42;;;20.90;73.40;;;;;;5006400;28;20033;-45
2022/11/14 11:36:14;;;;;;;26.77;20.45;;;21.00;73.70;;;;;;5006059;28;20423;-45
2022/11/14 11:38:40;;;;;;;28.13;20.88;;;21.80;71.40;;;;;;4997844;28;20351;-45
2022/11/14 11:41:34;;;;;;;24.40;20.17;;;21.70;72.50;;;;;;5003019;28;20026;-45
2022/11/14 11:44:11;;;;;;;25.33;20.67;;;21.70;71.70;;;;;;5006143;28;20334;-46
2022/11/14 11:46:45;;;;;;;23.77;19.45;;;21.90;71.40;;;;;;5005893;28;20026;-46
2022/11/14 11:49:21;;;;;;;25.15;20.05;;;22.10;70.60;;;;;;5006210;28;20669;-46
2022/11/14 11:51:51;;;;;;;21.35;17.10;;;21.20;71.10;;;;;;5004969;28;20449;-46
2022/11/14 11:54:25;;;;;;;21.58;18.08;;;21.20;70.60;;;;;;5005841;28;20078;-46
2022/11/14 11:56:54;;;;;;;23.08;19.13;;;20.70;72.60;;;;;;4986877;28;20034;-46
2022/11/14 11:59:22;;;;;;;25.63;17.80;;;20.30;72.90;;;;;;4987423;28;20028;-47
2022/11/14 12:01:50;;;;;;;23.60;18.95;;;20.40;73.80;;;;;;4997825;28;20787;-47
2022/11/14 12:04:15;;;;;;;23.02;18.92;;;20.60;72.90;;;;;;5006534;28;20466;-47
2022/11/14 12:06:51;;;;;;;22.90;18.23;;;20.60;74.00;;;;;;5006874;28;20030;-47
2022/11/14 12:09:24;;;;;;;27.02;18.63;;;20.30;74.30;;;;;;4998466;28;20113;-48
2022/11/14 12:12:02;;;;;;;22.85;18.02;;;20.20;73.90;;;;;;5000197;28;20526;-46
2022/11/14 12:14:30;;;;;;;24.83;17.77;;;19.60;75.00;;;;;;4994896;28;20034;-47
2022/11/14 12:17:40;;;;;;;23.50;19.02;;;19.50;75.10;;;;;;5010612;28;20067;-48
2022/11/14 12:20:36;;;;;;;28.00;18.42;;;18.70;76.70;;;;;;5011016;28;20030;-48
2022/11/14 12:23:30;;;;;;;24.42;18.30;;;18.40;77.00;;;;;;5010444;28;20026;-47
2022/11/14 12:26:25;;;;;;;26.83;19.85;;;17.90;78.70;;;;;;5010668;28;20022;-50
2022/11/14 12:29:10;;;;;;;23.58;18.27;;;17.50;79.80;;;;;;5010893;28;20031;-47
2022/11/14 12:31:38;;;;;;;25.40;19.50;;;16.70;82.40;;;;;;4990400;28;20034;-51
2022/11/14 12:34:23;;;;;;;23.02;18.17;;;16.50;82.50;;;;;;4990909;28;20038;-50
2022/11/14 12:36:49;;;;;;;24.50;18.02;;;16.00;85.10;;;;;;4998183;28;20026;-48
2022/11/14 12:39:27;;;;;;;24.73;17.15;;;15.70;86.10;;;;;;5010727;28;20396;-47
2022/11/14 12:42:08;;;;;;;30.75;19.13;;;15.30;88.00;;;;;;5010163;28;20030;-47
2022/11/14 12:44:38;;;;;;;26.05;19.20;;;15.00;89.00;;;;;;5010767;28;20029;-49
2022/11/14 12:47:04;;;;;;;27.02;19.23;;;14.50;89.40;;;;;;5009205;28;20056;-48
2022/11/14 12:49:51;;;;;;;25.83;18.88;;;14.30;90.40;;;;;;5010145;28;20093;-47
2022/11/14 12:52:39;;;;;;;29.65;20.73;;;14.00;90.70;;;;;;5010152;28;20101;-49
2022/11/14 12:55:24;;;;;;;28.23;18.33;;;13.50;91.70;;;;;;5008739;28;20029;-48